Austin, Texas
Traffic Map
Current Weather Conditions
Austin, Texas
Clear
Clear
86°
Feels Like: 86°
Wind Chill: 86° Ceiling: Unl
Heat Index: 86° Visibility: 10mi
Dew Point: 44° Wind: 3mph
Humidity: 23% Direction: ° ()
Pressure: 29.73in Gusts: 0mph
Raw Report DataKATT 242351Z AUTO VRB03KT 10SM CLR 30/07 A2973 RMK AO2 SLP057 T03000067 10306 20267 56024
Traffic Incident Summary
Active as of:
Severity:
Category:
InformationThere was an issue retrieving the traffic information for this location. Please try a different location or try again shortly.
Advertisements
Track Severe Weather on mobile